KSAD

Safford Regional Airport

Safford, Arizona, USA
METAR KSAD 181651Z AUTO 09004KT 10SM CLR 12/M06 A3017 RMK AO2 SLP203 T01221056
Observed Flight Rules
Nov-18 @ 16:51 UTC (23 minutes ago) Visual Flight Rules
Wind Visibility Clouds
90° at 4 knots 10 miles
  • Clear skies
Temperatures Readings
Current 12°C / 54°F
Dewpoint -6°C / 21°F
Humidity 28%
Altimeter 30.17" Hg
Pressure 1020.3 hPa
Elevation 962
METAR KSAD 181651Z AUTO 09004KT 10SM CLR 12/M06 A3017 RMK AO2 SLP203 T01221056
Observed Flight Rules
Nov-18 @ 16:51 UTC
(23 minutes ago)
VFR
Wind Visibility
90° at 4 knots 10 miles
Clouds
  • Clear skies
Temperature Dewpoint
12°C / 54°F -6°C / 21°F
Humidity Altimeter Pressure
28% 30.17" Hg 1020.3 hPa